Bookmark and Share
Track history (hours):
 

Durham

More information available from US FCC via Universal Licensing System and Coast Guard Vessel Documentation Center.

Last reported at 2013-Nov-11 15:33 UTC. Time now 2014-Apr-25 05:46 UTC.
Position N 40°39' W 074°08'.
Warning: this ship's position is months out of date.

Type: Towing. MMSI: 367444950.

NotesDate/timePositionNaut miles runAvg speedWind from/ knotsBaromVisibWave heightAir tempDewpointWater temp
2013-Nov-11 15:33N 40°39' W 074°08'  
2013-Nov-08 22:12N 40°39' W 074°07'5 7.4
2013-Nov-08 21:34N 40°41' W 074°01'2 2.2
2013-Nov-08 20:34N 40°42' W 073°59'0 0.0
2013-Nov-08 19:34N 40°42' W 073°59'0 0.2
2013-Nov-08 18:33N 40°43' W 073°59'0 0.0
2013-Nov-08 17:34N 40°43' W 073°59'0 0.0
2013-Nov-08 16:34N 40°43' W 073°59'0 0.0
2013-Nov-08 15:34N 40°43' W 073°59'0 0.0
2013-Nov-08 14:33N 40°43' W 073°59'0 0.0
2013-Nov-08 13:34N 40°43' W 073°60'0 0.0
2013-Nov-08 12:34N 40°43' W 073°59'2 2.5
2013-Nov-08 11:34N 40°41' W 074°02'3 0.1
2013-Nov-06 20:33N 40°39' W 074°05'5 5.1
2013-Nov-06 19:33N 40°42' W 073°59'0 0.0
2013-Nov-06 18:33N 40°42' W 073°59'0 0.0
2013-Nov-06 17:33N 40°42' W 073°59'0 0.0
2013-Nov-06 16:33N 40°42' W 073°59'0 0.0
2013-Nov-06 15:33N 40°42' W 073°59'0 0.0
2013-Nov-06 14:33N 40°42' W 073°59'0 0.0
2013-Nov-06 13:33N 40°42' W 073°59'0 0.0
2013-Nov-06 12:33N 40°42' W 073°59'4 3.7
2013-Nov-06 11:33N 40°40' W 074°03'3 0.3
2013-Nov-05 23:13N 40°39' W 074°07'0 0.0
2013-Nov-05 18:34N 40°39' W 074°07'0 0.0
2013-Nov-05 17:09N 40°39' W 074°07'0 0.2
2013-Nov-05 16:33N 40°39' W 074°07'0 0.0
2013-Nov-05 15:33N 40°39' W 074°07'0 0.1
2013-Nov-05 14:33N 40°39' W 074°07'0 0.0
2013-Nov-05 13:31N 40°39' W 074°07'  

Dump ship's entire track history

sailing weather and tide predictions

Durham — WDF3868 — position and weather